Tropical Cyclones
[Index]
Main Index Home Page Stock Weather Photos Extreme Storms Discussion Storm News and Storm Chasing Reports Tropical Cyclones / Hurricanes / Typhoons Weather Data and Links Wild Fires / Bushfires Weather Observation Techniques Weather Picture Catalogue Tornado Pictures and Reports Stock Video Footage and DVDs for sale
Season 2012-2013 Tropical Cyclone FREDA Track Map
Season 2012-2013 Summaries: [BoM-AU] [JTWC-AU] [JTWC-SIO] [JTWC-SPAC] [JTWC-SH]
<<- Previous TC | JTWC 2012-2013 Season | Next TC ->>

click for intensity scale information  Lat/long Grid: Show Hide

 Date Labels: Show Hide

Joint Typhoon Warning Centre Cyclone Data

Name: FREDA

27 Dec 2012 06:00 UTC to 03 Jan 2013 18:00 UTC

    date/time    lat    long     hPa   cat  kts
2012-12-27 06    8.6   164.4    1007         20          
2012-12-27 12    9.0   163.6    1004         25          
2012-12-27 18    9.2   162.7    1000         30          
2012-12-28 00    9.7   161.6    1000         30          
2012-12-28 06   10.4   160.8    1000         30          
2012-12-28 12   11.1   160.4     993    1    40          
2012-12-28 18   11.7   160.1     989    1    45          
2012-12-29 00   12.3   159.9     982    2    55          
2012-12-29 00   12.3   159.9     982    2    55          
2012-12-29 06   12.7   160.0     978    2    60          
2012-12-29 06   12.7   160.0     978    2    60          
2012-12-29 12   13.0   160.3     963    3    80          
2012-12-29 12   13.0   160.3     963    3    80          
2012-12-29 12   13.0   160.3     963    3    80          
2012-12-29 18   13.5   160.4     956    3    90          
2012-12-29 18   13.5   160.4     956    3    90          
2012-12-29 18   13.5   160.4     956    3    90          
2012-12-30 00   14.0   160.7     948    4   100          
2012-12-30 00   14.0   160.7     948    4   100          
2012-12-30 00   14.0   160.7     948    4   100          
2012-12-30 06   14.6   160.9     948    4   100          
2012-12-30 06   14.6   160.9     948    4   100          
2012-12-30 06   14.6   160.9     948    4   100          
2012-12-30 12   15.3   161.1     944    4   105          
2012-12-30 12   15.3   161.1     944    4   105          
2012-12-30 12   15.3   161.1     944    4   105          
2012-12-30 18   15.9   161.1     941    4   110          
2012-12-30 18   15.9   161.1     941    4   110          
2012-12-30 18   15.9   161.1     941    4   110          
2012-12-31 00   16.4   161.1     944    4   105          
2012-12-31 00   16.4   161.1     944    4   105          
2012-12-31 00   16.4   161.1     944    4   105          
2012-12-31 06   16.9   161.3     952    3    95          
2012-12-31 06   16.9   161.3     952    3    95          
2012-12-31 06   16.9   161.3     952    3    95          
2012-12-31 12   17.4   161.6     956    3    90          
2012-12-31 12   17.4   161.6     956    3    90          
2012-12-31 12   17.4   161.6     956    3    90          
2012-12-31 18   17.9   161.5     963    3    80          
2012-12-31 18   17.9   161.5     963    3    80          
2012-12-31 18   17.9   161.5     963    3    80          
2013-01-01 00   18.4   161.4     970    2    70          
2013-01-01 00   18.4   161.4     970    2    70          
2013-01-01 00   18.4   161.4     970    2    70          
2013-01-01 06   19.0   161.6     974    2    65          
2013-01-01 06   19.0   161.6     974    2    65          
2013-01-01 12   19.4   161.9     989    1    45          
2013-01-01 18   19.5   162.4     993    1    40          
2013-01-02 00   20.1   163.1     996         35          
2013-01-02 06   20.1   164.2     996         35          
2013-01-02 12   20.7   165.8     996         35          
2013-01-02 18   21.3   167.3    1000         30          
2013-01-03 00   21.4   168.4     993    1    40          
2013-01-03 06   21.8   170.1     989    1    45          
2013-01-03 12   22.1   171.6     993    1    40          
2013-01-03 18   22.4   172.9     993    1    40          
Winds are 1-min average.

Tropical cyclone tracks developed by Michael Bath using data from the Joint Typhoon Warning Centre Best Tracks and Google Maps.


[Australian Severe Weather index] [Copyright Notice] [Email Contacts] [Search This Site] [Privacy Policy]
Document: tropical_cyclone_freda.htm Updated: 28 June 2017